Time;durP1;ratioP1;P1;durP2;ratioP2;P2;SDS_P1;SDS_P2;PMS_P1;PMS_P2;Temp;Humidity;BMP_temperature;BMP_pressure;BME280_temperature;BME280_humidity;BME280_pressure;Samples;Min_cycle;Max_cycle;Signal;HPM_P1;HPM_P2
2024/01/22 00:01:42;;;;;;;9.53;6.00;;;5.60;1.00;;;;;;5045003;28;20677;-78
2024/01/22 00:04:09;;;;;;;13.47;5.70;;;5.60;1.00;;;;;;5039786;28;20214;-78
2024/01/22 00:06:37;;;;;;;11.77;6.00;;;5.70;1.00;;;;;;5033770;28;20602;-79
2024/01/22 00:09:06;;;;;;;12.43;6.37;;;5.60;1.00;;;;;;5038222;28;20604;-79
2024/01/22 00:11:33;;;;;;;11.70;6.13;;;5.70;1.00;;;;;;5033636;28;20643;-79
2024/01/22 00:14:00;;;;;;;11.43;5.40;;;5.80;1.00;;;;;;5037986;28;20202;-80
2024/01/22 00:16:27;;;;;;;12.27;6.03;;;5.70;1.00;;;;;;5036353;28;20231;-78
2024/01/22 00:18:54;;;;;;;9.73;5.83;;;5.80;1.00;;;;;;5032952;28;20210;-78
2024/01/22 00:21:21;;;;;;;12.23;6.00;;;5.80;1.00;;;;;;5032456;28;20227;-80
2024/01/22 00:23:48;;;;;;;9.97;5.40;;;5.80;1.00;;;;;;5033153;28;20204;-79
2024/01/22 00:26:16;;;;;;;10.60;5.90;;;5.90;99.90;;;;;;5031261;28;20670;-81
2024/01/22 00:28:43;;;;;;;12.70;6.60;;;5.80;1.00;;;;;;5028570;28;20200;-80
2024/01/22 00:31:10;;;;;;;11.83;6.20;;;5.70;1.00;;;;;;5035079;28;20202;-81
2024/01/22 00:33:36;;;;;;;11.97;6.03;;;5.90;1.00;;;;;;5033456;28;20648;-80
2024/01/22 00:36:03;;;;;;;10.83;5.43;;;6.00;99.90;;;;;;5032558;28;20701;-78
2024/01/22 00:38:30;;;;;;;11.60;5.30;;;6.10;99.90;;;;;;5032766;28;20199;-80
2024/01/22 00:40:57;;;;;;;9.70;5.37;;;6.10;99.90;;;;;;5032311;28;20212;-79
2024/01/22 00:43:25;;;;;;;8.20;5.03;;;6.10;99.90;;;;;;5030769;28;20196;-80
2024/01/22 00:45:52;;;;;;;7.93;4.90;;;6.00;99.90;;;;;;5032018;28;20219;-80
2024/01/22 00:48:19;;;;;;;8.57;4.87;;;6.00;99.90;;;;;;5032854;28;20196;-80
2024/01/22 00:50:45;;;;;;;7.50;4.67;;;6.10;99.90;;;;;;5031894;28;20243;-78
2024/01/22 00:53:12;;;;;;;10.33;5.60;;;6.00;99.90;;;;;;5031938;28;20226;-78
2024/01/22 00:55:39;;;;;;;10.47;4.80;;;6.10;99.90;;;;;;5030520;28;20223;-77
2024/01/22 00:58:06;;;;;;;9.30;4.67;;;6.10;99.90;;;;;;5028041;28;20212;-79
2024/01/22 01:00:34;;;;;;;8.07;4.50;;;6.10;99.90;;;;;;5031185;28;20220;-78
2024/01/22 01:03:00;;;;;;;10.27;5.40;;;6.20;99.90;;;;;;5038434;28;20218;-80
2024/01/22 01:05:27;;;;;;;10.43;4.80;;;6.30;99.90;;;;;;5031499;28;20223;-78
2024/01/22 01:07:54;;;;;;;9.37;5.10;;;6.10;1.00;;;;;;5031258;28;20219;-81
2024/01/22 01:10:21;;;;;;;8.67;5.00;;;6.10;1.00;;;;;;5039178;28;20203;-79
2024/01/22 01:12:48;;;;;;;11.47;4.33;;;6.10;1.00;;;;;;5037701;28;20199;-80
2024/01/22 01:15:14;;;;;;;9.10;4.40;;;6.10;1.00;;;;;;5032367;28;20228;-81
2024/01/22 01:17:42;;;;;;;8.30;4.77;;;6.30;99.90;;;;;;5033668;28;20210;-80
2024/01/22 01:20:10;;;;;;;8.23;5.00;;;6.30;1.00;;;;;;5031271;28;20207;-79
2024/01/22 01:22:37;;;;;;;9.33;4.40;;;6.30;1.00;;;;;;5027445;28;20223;-79
2024/01/22 01:25:04;;;;;;;7.60;4.03;;;6.10;1.00;;;;;;5034593;28;20219;-80
2024/01/22 01:27:31;;;;;;;6.30;3.87;;;6.20;1.00;;;;;;5037315;28;20216;-80
2024/01/22 01:29:58;;;;;;;6.37;4.00;;;6.20;1.00;;;;;;5037073;28;20211;-79
2024/01/22 01:32:26;;;;;;;8.80;4.40;;;6.40;1.00;;;;;;5032180;28;20270;-79
2024/01/22 01:34:54;;;;;;;10.80;4.37;;;6.30;1.00;;;;;;5032116;28;20227;-79
2024/01/22 01:37:21;;;;;;;6.63;4.37;;;6.40;1.00;;;;;;5034149;28;20214;-80
2024/01/22 01:39:47;;;;;;;8.10;4.30;;;6.40;1.00;;;;;;5035633;28;20214;-80
2024/01/22 01:42:14;;;;;;;7.50;4.47;;;6.40;99.90;;;;;;5035553;28;20215;-79
2024/01/22 01:44:51;;;;;;;7.33;4.10;;;6.40;99.90;;;;;;5032569;28;20238;-78
2024/01/22 01:47:18;;;;;;;6.53;4.40;;;6.50;99.90;;;;;;5034057;28;20646;-78
2024/01/22 01:49:45;;;;;;;8.87;4.60;;;6.60;99.90;;;;;;5033940;28;20261;-77
2024/01/22 01:52:14;;;;;;;7.43;4.63;;;6.60;99.90;;;;;;5033957;28;20199;-78
2024/01/22 01:54:43;;;;;;;9.27;4.53;;;6.50;99.90;;;;;;5033118;28;20223;-78
2024/01/22 01:57:11;;;;;;;6.77;3.83;;;6.50;99.90;;;;;;5033253;28;20210;-78
2024/01/22 01:59:39;;;;;;;9.57;4.90;;;6.60;99.90;;;;;;5033828;28;20200;-79
2024/01/22 02:02:06;;;;;;;6.30;3.90;;;6.60;99.90;;;;;;5033487;28;20223;-78
2024/01/22 02:04:33;;;;;;;9.77;3.87;;;6.60;99.90;;;;;;5033772;28;20223;-79
2024/01/22 02:07:00;;;;;;;9.50;4.10;;;6.70;99.90;;;;;;5033329;28;20200;-78
2024/01/22 02:09:47;;;;;;;8.23;3.97;;;6.70;99.90;;;;;;5041153;28;20571;-78
2024/01/22 02:12:14;;;;;;;6.93;4.00;;;6.60;99.90;;;;;;5033576;28;20200;-79
2024/01/22 02:14:41;;;;;;;7.23;3.93;;;6.60;99.90;;;;;;5033969;28;20223;-79
2024/01/22 02:17:07;;;;;;;14.23;4.37;;;6.60;99.90;;;;;;5033297;28;20235;-78
2024/01/22 02:19:34;;;;;;;6.20;3.90;;;6.80;99.90;;;;;;5032947;28;20196;-77
2024/01/22 02:22:01;;;;;;;7.00;4.17;;;6.80;1.00;;;;;;5032940;28;20223;-79
2024/01/22 02:24:29;;;;;;;7.33;4.00;;;6.80;1.00;;;;;;5034220;28;20215;-77
2024/01/22 02:26:56;;;;;;;6.23;4.10;;;6.80;1.00;;;;;;5033008;28;20199;-77
2024/01/22 02:29:23;;;;;;;6.30;3.67;;;6.90;1.00;;;;;;5031352;28;20210;-78
2024/01/22 02:31:49;;;;;;;7.03;3.77;;;6.90;1.00;;;;;;5033408;28;20196;-79
2024/01/22 02:34:16;;;;;;;6.63;3.77;;;7.10;1.00;;;;;;5032727;28;20204;-77
2024/01/22 02:36:45;;;;;;;6.27;3.67;;;7.00;1.00;;;;;;5033450;28;20578;-79
2024/01/22 02:39:12;;;;;;;6.80;3.90;;;6.90;1.00;;;;;;5032307;28;20702;-79
2024/01/22 02:41:40;;;;;;;8.73;3.87;;;6.90;1.00;;;;;;5032728;28;20238;-78
2024/01/22 02:44:06;;;;;;;5.80;3.73;;;6.90;1.00;;;;;;5032991;28;20203;-77
2024/01/22 02:46:33;;;;;;;5.07;3.30;;;7.00;1.00;;;;;;5035613;28;20224;-78
2024/01/22 02:49:00;;;;;;;7.43;3.70;;;7.10;99.90;;;;;;5034658;28;20204;-79
2024/01/22 02:51:27;;;;;;;8.70;3.83;;;7.20;99.90;;;;;;5032316;28;20202;-78
2024/01/22 02:53:54;;;;;;;5.83;3.47;;;7.30;99.90;;;;;;5032992;28;20208;-77
2024/01/22 02:56:21;;;;;;;6.73;3.50;;;7.30;99.90;;;;;;5033513;28;20242;-78
2024/01/22 02:58:49;;;;;;;5.57;3.30;;;7.50;99.90;;;;;;5031013;28;20199;-78
2024/01/22 03:01:16;;;;;;;6.43;3.07;;;7.30;99.90;;;;;;5033095;28;20571;-78
2024/01/22 03:03:42;;;;;;;7.83;3.37;;;7.30;99.90;;;;;;5032355;28;20682;-78
2024/01/22 03:06:09;;;;;;;4.87;3.20;;;7.40;99.90;;;;;;5033389;28;20232;-78
2024/01/22 03:08:36;;;;;;;8.67;3.87;;;7.40;99.90;;;;;;5032777;28;20203;-77
2024/01/22 03:11:04;;;;;;;4.57;3.20;;;7.40;99.90;;;;;;5038784;28;20203;-80
2024/01/22 03:13:31;;;;;;;6.80;3.40;;;7.60;99.90;;;;;;5038586;28;20230;-79
2024/01/22 03:15:59;;;;;;;5.30;3.40;;;7.40;99.90;;;;;;5038272;28;20255;-79
2024/01/22 03:18:27;;;;;;;4.13;2.83;;;7.50;99.90;;;;;;5033981;28;20202;-77
2024/01/22 03:20:54;;;;;;;5.63;2.80;;;7.70;99.90;;;;;;5043352;28;20289;-80
2024/01/22 03:23:21;;;;;;;4.13;3.17;;;7.70;99.90;;;;;;5032338;28;20208;-79
2024/01/22 03:25:48;;;;;;;6.90;3.47;;;7.70;99.90;;;;;;5032860;28;20219;-78
2024/01/22 03:28:14;;;;;;;6.73;2.90;;;7.90;99.90;;;;;;5029600;28;20216;-79
2024/01/22 03:30:41;;;;;;;5.63;2.90;;;7.70;99.90;;;;;;5034997;28;20688;-78
2024/01/22 03:33:09;;;;;;;5.90;2.97;;;7.80;99.90;;;;;;5035070;28;20685;-80
2024/01/22 03:35:36;;;;;;;5.17;2.70;;;7.70;99.90;;;;;;5036209;28;20582;-78
2024/01/22 03:38:03;;;;;;;4.43;2.80;;;7.90;91.60;;;;;;5032921;28;20207;-78
2024/01/22 03:40:30;;;;;;;5.53;3.20;;;7.80;77.00;;;;;;5031771;28;20195;-78
2024/01/22 03:42:57;;;;;;;7.80;2.97;;;7.80;76.40;;;;;;5029772;28;20220;-79
2024/01/22 03:45:23;;;;;;;5.53;3.23;;;7.90;21.60;;;;;;5032529;28;20231;-79
2024/01/22 03:47:50;;;;;;;6.90;3.80;;;7.80;41.50;;;;;;5030394;28;20214;-79
2024/01/22 03:50:18;;;;;;;5.50;3.00;;;7.90;1.00;;;;;;5031985;28;20572;-79
2024/01/22 03:52:45;;;;;;;5.83;3.17;;;7.90;1.00;;;;;;5032007;28;20564;-77
2024/01/22 03:55:12;;;;;;;4.93;3.13;;;7.80;12.10;;;;;;5031827;28;20709;-78
2024/01/22 03:57:38;;;;;;;6.30;2.80;;;7.80;14.60;;;;;;5030465;28;20584;-79
2024/01/22 04:00:06;;;;;;;4.63;3.23;;;7.80;17.70;;;;;;5032031;28;21114;-78
2024/01/22 04:02:34;;;;;;;4.40;2.77;;;7.80;26.30;;;;;;5033008;28;20708;-78
2024/01/22 04:05:01;;;;;;;4.33;3.00;;;7.80;39.20;;;;;;5030600;28;20249;-78
2024/01/22 04:07:29;;;;;;;5.67;3.23;;;7.70;64.30;;;;;;5032308;28;20249;-79
2024/01/22 04:09:56;;;;;;;4.17;2.83;;;7.80;59.00;;;;;;5033525;28;20282;-78
2024/01/22 04:12:23;;;;;;;5.33;3.07;;;7.70;82.10;;;;;;5032332;28;20228;-80
2024/01/22 04:14:50;;;;;;;4.70;2.90;;;7.70;95.30;;;;;;5032490;28;20220;-79
2024/01/22 04:17:16;;;;;;;7.93;4.23;;;7.70;85.40;;;;;;5031968;28;20216;-79
2024/01/22 04:19:43;;;;;;;3.50;2.43;;;7.70;81.60;;;;;;5037297;28;20202;-79
2024/01/22 04:22:10;;;;;;;5.07;3.03;;;7.80;98.80;;;;;;5042670;28;20632;-79
2024/01/22 04:24:39;;;;;;;6.20;2.87;;;7.80;69.80;;;;;;5041030;28;20202;-80
2024/01/22 04:27:05;;;;;;;6.70;2.87;;;8.10;1.00;;;;;;5039806;28;20203;-79
2024/01/22 04:29:34;;;;;;;5.17;3.20;;;8.00;1.00;;;;;;5043007;28;20203;-81
2024/01/22 04:32:01;;;;;;;6.60;2.77;;;8.00;1.00;;;;;;5038814;28;20246;-80
2024/01/22 04:34:28;;;;;;;8.20;3.40;;;7.90;13.90;;;;;;5031939;28;20210;-82
2024/01/22 04:36:55;;;;;;;4.40;2.37;;;8.00;1.00;;;;;;5032763;28;20199;-79
2024/01/22 04:39:23;;;;;;;5.87;2.73;;;8.10;1.00;;;;;;5032591;28;20210;-79
2024/01/22 04:41:53;;;;;;;5.17;2.60;;;8.10;1.00;;;;;;5035654;28;20224;-80
2024/01/22 04:44:19;;;;;;;5.40;2.77;;;8.10;1.00;;;;;;5033515;28;20219;-79
2024/01/22 04:46:46;;;;;;;4.57;3.10;;;8.00;1.00;;;;;;5033110;28;20204;-78
2024/01/22 04:49:13;;;;;;;5.17;2.67;;;8.00;4.90;;;;;;5032728;28;20290;-78
2024/01/22 04:51:43;;;;;;;4.87;2.70;;;8.10;1.00;;;;;;5032498;28;20676;-79
2024/01/22 04:54:11;;;;;;;4.40;3.13;;;8.00;1.60;;;;;;5032364;28;20212;-78
2024/01/22 04:56:41;;;;;;;5.97;2.97;;;8.10;1.00;;;;;;5030495;28;20231;-79
2024/01/22 04:59:09;;;;;;;5.20;2.50;;;8.00;1.00;;;;;;5035839;28;20205;-79
2024/01/22 05:01:36;;;;;;;5.43;2.50;;;8.10;1.00;;;;;;5038548;28;20196;-78
2024/01/22 05:04:03;;;;;;;3.30;2.40;;;8.10;1.00;;;;;;5035270;28;20821;-79
2024/01/22 05:06:30;;;;;;;4.57;2.50;;;8.10;1.00;;;;;;5032556;28;20219;-80
2024/01/22 05:08:57;;;;;;;2.40;2.10;;;8.10;1.00;;;;;;5033945;28;20203;-80
2024/01/22 05:11:24;;;;;;;4.20;2.50;;;8.30;1.00;;;;;;5037758;28;20203;-79
2024/01/22 05:13:51;;;;;;;4.70;2.67;;;8.20;1.00;;;;;;5037965;28;20286;-80
2024/01/22 05:16:21;;;;;;;2.50;2.10;;;8.20;1.00;;;;;;5037627;28;20232;-80
2024/01/22 05:18:49;;;;;;;2.40;2.13;;;8.20;1.00;;;;;;5037629;28;20204;-81
2024/01/22 05:21:16;;;;;;;3.37;2.47;;;8.20;1.00;;;;;;5035962;28;20208;-79
2024/01/22 05:23:44;;;;;;;4.87;2.83;;;8.10;1.00;;;;;;5037280;28;20694;-79
2024/01/22 05:26:11;;;;;;;4.27;2.30;;;8.20;1.00;;;;;;5045252;28;20593;-81
2024/01/22 05:28:38;;;;;;;3.27;2.50;;;8.20;1.00;;;;;;5037033;28;20199;-79
2024/01/22 05:31:05;;;;;;;4.77;2.30;;;8.20;42.40;;;;;;5037419;28;20210;-81
2024/01/22 05:33:33;;;;;;;4.10;2.17;;;8.20;99.90;;;;;;5037912;28;20598;-80
2024/01/22 05:36:00;;;;;;;3.43;2.10;;;8.40;99.90;;;;;;5039280;28;20235;-80
2024/01/22 05:38:27;;;;;;;4.20;2.40;;;8.20;99.90;;;;;;5036555;28;20226;-79
2024/01/22 05:40:54;;;;;;;4.70;2.33;;;8.20;99.90;;;;;;5036628;28;20238;-79
2024/01/22 05:43:20;;;;;;;4.57;2.40;;;8.20;99.90;;;;;;5036430;28;20250;-82
2024/01/22 05:45:47;;;;;;;7.63;2.60;;;8.10;1.00;;;;;;5036938;28;20586;-80
2024/01/22 05:48:14;;;;;;;4.37;2.13;;;8.20;1.00;;;;;;5036551;28;20658;-79
2024/01/22 05:50:42;;;;;;;4.33;2.53;;;8.10;1.00;;;;;;5035337;28;20576;-81
2024/01/22 05:53:09;;;;;;;4.60;2.27;;;8.10;3.00;;;;;;5037396;28;20613;-81
2024/01/22 05:55:36;;;;;;;3.40;2.17;;;7.90;99.90;;;;;;5037510;28;20226;-79
2024/01/22 05:58:03;;;;;;;3.83;2.10;;;7.90;1.00;;;;;;5035914;28;20220;-79
2024/01/22 06:00:30;;;;;;;4.63;2.30;;;7.90;1.00;;;;;;5039819;28;20199;-79
2024/01/22 06:02:59;;;;;;;3.83;2.40;;;7.80;1.00;;;;;;5037949;28;20224;-79
2024/01/22 06:05:25;;;;;;;3.77;2.30;;;7.80;1.00;;;;;;5038467;28;20230;-81
2024/01/22 06:07:53;;;;;;;3.97;2.00;;;7.70;1.00;;;;;;5035695;28;20200;-81
2024/01/22 06:10:20;;;;;;;4.07;1.97;;;7.80;1.00;;;;;;5038569;28;20199;-81
2024/01/22 06:12:47;;;;;;;3.27;2.30;;;7.80;99.90;;;;;;5036802;28;20203;-79
2024/01/22 06:15:14;;;;;;;3.93;2.47;;;7.80;1.00;;;;;;5035535;28;20234;-80
2024/01/22 06:17:41;;;;;;;3.63;2.33;;;7.80;1.00;;;;;;5037504;28;20203;-80
2024/01/22 06:20:09;;;;;;;4.30;2.17;;;7.70;1.00;;;;;;5036295;28;20208;-80
2024/01/22 06:22:35;;;;;;;4.70;2.10;;;7.80;1.00;;;;;;5035099;28;20223;-80
2024/01/22 06:25:05;;;;;;;3.33;2.17;;;7.60;1.00;;;;;;5035745;28;20224;-81
2024/01/22 06:27:32;;;;;;;3.57;2.23;;;7.60;1.00;;;;;;5036335;28;20832;-81
2024/01/22 06:29:59;;;;;;;4.13;2.40;;;7.60;1.00;;;;;;5035867;28;20661;-79
2024/01/22 06:32:26;;;;;;;3.00;2.17;;;7.60;99.90;;;;;;5045166;28;20203;-80
2024/01/22 06:34:53;;;;;;;4.30;2.20;;;7.70;99.90;;;;;;5039569;28;20220;-81
2024/01/22 06:37:21;;;;;;;3.83;2.07;;;7.70;99.90;;;;;;5035245;28;20254;-81
2024/01/22 06:39:48;;;;;;;4.03;2.30;;;7.40;1.00;;;;;;5038510;28;20200;-80
2024/01/22 06:42:16;;;;;;;2.50;2.00;;;7.70;1.00;;;;;;5035883;28;20227;-79
2024/01/22 06:44:43;;;;;;;3.10;2.30;;;7.80;99.90;;;;;;5035611;28;20250;-80
2024/01/22 06:47:10;;;;;;;2.73;2.00;;;7.80;99.90;;;;;;5036912;28;20206;-80
2024/01/22 06:49:37;;;;;;;2.10;1.80;;;8.00;1.00;;;;;;5035937;28;20682;-80
2024/01/22 06:52:04;;;;;;;3.30;1.70;;;8.00;1.00;;;;;;5037039;28;20211;-81
2024/01/22 06:54:31;;;;;;;5.97;2.53;;;8.00;99.90;;;;;;5036247;28;20566;-79
2024/01/22 06:56:57;;;;;;;3.67;2.00;;;7.90;1.00;;;;;;5035551;28;20664;-80
2024/01/22 06:59:26;;;;;;;3.40;2.00;;;7.90;99.90;;;;;;5035434;28;20569;-79
2024/01/22 07:01:53;;;;;;;2.07;1.87;;;8.00;1.00;;;;;;5038361;28;20218;-80
2024/01/22 07:04:20;;;;;;;4.87;1.90;;;8.10;1.00;;;;;;5039328;28;20246;-81
2024/01/22 07:06:48;;;;;;;2.93;1.70;;;8.00;99.90;;;;;;5035232;28;20195;-80
2024/01/22 07:09:16;;;;;;;3.80;1.97;;;8.10;99.90;;;;;;5035474;28;20662;-79
2024/01/22 07:11:43;;;;;;;3.33;1.87;;;8.00;99.90;;;;;;5038329;28;20200;-79
2024/01/22 07:14:10;;;;;;;2.03;1.73;;;8.10;1.00;;;;;;5037849;28;20196;-81
2024/01/22 07:16:38;;;;;;;5.90;1.60;;;8.00;1.00;;;;;;5035606;28;20227;-80
2024/01/22 07:19:05;;;;;;;1.80;1.47;;;8.00;1.00;;;;;;5035838;28;20208;-81
2024/01/22 07:21:33;;;;;;;2.30;1.40;;;8.10;99.90;;;;;;5036974;28;20205;-79
2024/01/22 07:23:59;;;;;;;1.67;1.30;;;8.10;1.00;;;;;;5036152;28;20690;-81
2024/01/22 07:26:26;;;;;;;4.43;1.63;;;8.20;1.00;;;;;;5035500;28;20231;-80
2024/01/22 07:28:53;;;;;;;1.40;1.30;;;8.20;1.00;;;;;;5034996;28;20200;-80
2024/01/22 07:31:20;;;;;;;1.50;1.40;;;8.30;99.90;;;;;;5034676;28;20199;-79
2024/01/22 07:33:48;;;;;;;2.67;1.30;;;8.20;1.00;;;;;;5035378;28;20196;-79
2024/01/22 07:36:16;;;;;;;1.30;1.00;;;8.30;99.90;;;;;;5034711;28;20234;-80
2024/01/22 07:38:44;;;;;;;1.33;1.20;;;8.40;1.00;;;;;;5039152;28;20726;-80
2024/01/22 07:41:10;;;;;;;1.60;1.10;;;8.40;1.00;;;;;;5037529;28;20211;-79
2024/01/22 07:43:37;;;;;;;2.00;1.70;;;8.30;1.00;;;;;;5034385;28;20701;-81
2024/01/22 07:46:04;;;;;;;1.57;1.20;;;8.40;1.00;;;;;;5036745;28;20682;-79
2024/01/22 07:48:31;;;;;;;2.03;1.43;;;8.60;1.00;;;;;;5033437;28;20211;-80
2024/01/22 07:50:59;;;;;;;1.30;1.20;;;8.60;1.00;;;;;;5034293;28;20206;-80
2024/01/22 07:53:26;;;;;;;1.57;1.43;;;8.60;1.00;;;;;;5035008;28;20200;-81
2024/01/22 07:55:53;;;;;;;1.83;1.10;;;8.70;1.00;;;;;;5033787;28;20228;-79
2024/01/22 07:58:20;;;;;;;1.73;1.30;;;8.60;1.00;;;;;;5034070;28;20219;-80
2024/01/22 08:00:46;;;;;;;3.70;1.60;;;8.50;1.00;;;;;;5038689;28;20198;-80
2024/01/22 08:03:13;;;;;;;2.30;1.27;;;8.60;1.00;;;;;;5044813;28;20583;-80
2024/01/22 08:05:40;;;;;;;1.20;1.10;;;8.70;99.90;;;;;;5034948;28;20226;-81
2024/01/22 08:08:10;;;;;;;1.60;1.10;;;8.70;1.00;;;;;;5037650;28;20208;-80
2024/01/22 08:10:37;;;;;;;1.00;1.00;;;8.60;1.00;;;;;;5034787;28;20207;-80
2024/01/22 08:13:04;;;;;;;1.40;0.90;;;8.70;99.90;;;;;;5034231;28;20203;-79
2024/01/22 08:15:30;;;;;;;2.00;1.57;;;8.70;99.90;;;;;;5037001;28;20705;-81
2024/01/22 08:17:57;;;;;;;1.73;1.20;;;8.60;99.90;;;;;;5033538;28;20646;-81
2024/01/22 08:20:24;;;;;;;2.10;1.00;;;8.70;99.90;;;;;;5034425;28;20226;-79
2024/01/22 08:22:51;;;;;;;1.67;1.23;;;8.70;99.90;;;;;;5033277;28;20215;-80
2024/01/22 08:25:27;;;;;;;2.27;1.40;;;8.70;99.90;;;;;;5033758;28;20216;-79
2024/01/22 08:27:53;;;;;;;1.53;1.10;;;8.70;90.50;;;;;;5034186;28;20227;-79
2024/01/22 08:30:20;;;;;;;1.23;0.90;;;8.80;99.90;;;;;;5032949;28;20681;-80
2024/01/22 08:32:48;;;;;;;1.83;0.90;;;8.70;99.90;;;;;;5031837;28;20646;-81
2024/01/22 08:35:16;;;;;;;1.03;0.70;;;8.70;99.90;;;;;;5032400;28;20671;-81
2024/01/22 08:37:50;;;;;;;0.90;0.90;;;8.60;99.90;;;;;;5032437;28;20203;-80
2024/01/22 08:40:19;;;;;;;0.90;0.90;;;8.60;99.90;;;;;;5030715;28;20290;-80
2024/01/22 08:42:50;;;;;;;1.03;0.90;;;8.60;99.90;;;;;;5033027;28;20214;-81
2024/01/22 08:45:17;;;;;;;1.27;1.20;;;8.60;1.00;;;;;;5036464;28;20266;-80
2024/01/22 08:47:45;;;;;;;0.70;0.70;;;8.60;1.00;;;;;;5036639;28;20299;-79
2024/01/22 08:50:15;;;;;;;1.13;0.80;;;8.60;99.90;;;;;;5039633;28;20208;-80
2024/01/22 08:52:42;;;;;;;1.00;0.90;;;8.60;1.00;;;;;;5037735;28;20508;-79
2024/01/22 08:55:09;;;;;;;2.40;1.30;;;8.60;1.00;;;;;;5038742;28;20227;-79
2024/01/22 08:57:36;;;;;;;1.23;1.03;;;8.50;1.00;;;;;;5036696;28;20208;-81
2024/01/22 09:00:10;;;;;;;2.93;1.03;;;8.50;34.60;;;;;;5039041;28;20203;-80
2024/01/22 09:02:37;;;;;;;1.57;1.00;;;8.30;1.00;;;;;;5051423;28;20653;-80
2024/01/22 09:05:05;;;;;;;1.30;0.90;;;8.40;55.00;;;;;;5042875;28;20223;-80
2024/01/22 09:07:32;;;;;;;2.83;1.07;;;8.30;1.00;;;;;;5042999;28;20196;-81
2024/01/22 09:09:59;;;;;;;1.57;0.90;;;8.30;1.00;;;;;;5041057;28;20227;-82
2024/01/22 09:12:26;;;;;;;1.00;0.90;;;8.20;24.70;;;;;;5042649;28;20330;-80
2024/01/22 09:14:53;;;;;;;1.47;0.80;;;8.10;99.90;;;;;;5036850;28;20254;-79
2024/01/22 09:17:21;;;;;;;1.80;0.97;;;8.20;99.90;;;;;;5044635;28;20612;-80
2024/01/22 09:19:48;;;;;;;0.80;0.80;;;8.10;99.90;;;;;;5036922;28;20203;-80
2024/01/22 09:22:15;;;;;;;2.00;1.17;;;8.00;99.90;;;;;;5037074;28;20627;-78
2024/01/22 09:24:42;;;;;;;1.20;0.93;;;8.00;99.90;;;;;;5039044;28;20218;-81
2024/01/22 09:27:08;;;;;;;0.67;0.60;;;8.10;99.90;;;;;;5036165;28;20199;-81
2024/01/22 09:29:35;;;;;;;0.77;0.77;;;8.10;99.90;;;;;;5038839;28;20207;-80
2024/01/22 09:32:02;;;;;;;1.70;1.17;;;8.10;99.90;;;;;;5036970;28;20211;-81
2024/01/22 09:34:30;;;;;;;1.20;0.73;;;8.10;99.90;;;;;;5038327;28;20204;-81
2024/01/22 09:36:57;;;;;;;1.20;0.87;;;8.00;99.90;;;;;;5036365;28;20208;-80
2024/01/22 09:39:24;;;;;;;1.17;0.97;;;8.10;99.90;;;;;;5036619;28;20218;-81
2024/01/22 09:41:51;;;;;;;0.97;0.87;;;8.10;99.90;;;;;;5037916;28;20203;-80
2024/01/22 09:44:18;;;;;;;0.70;0.70;;;8.10;99.90;;;;;;5037524;28;20227;-81
2024/01/22 09:46:46;;;;;;;1.00;0.90;;;8.20;99.90;;;;;;5038193;28;20211;-80
2024/01/22 09:49:13;;;;;;;1.10;1.00;;;8.20;99.90;;;;;;5036880;28;20213;-80
2024/01/22 09:51:44;;;;;;;1.30;1.13;;;8.30;99.90;;;;;;5038936;28;20577;-80
2024/01/22 09:54:12;;;;;;;1.37;0.80;;;8.40;99.90;;;;;;5036810;28;20228;-81
2024/01/22 09:56:40;;;;;;;1.13;1.13;;;8.50;96.90;;;;;;5036707;28;20311;-82
2024/01/22 09:59:16;;;;;;;1.00;1.00;;;8.70;1.00;;;;;;5035921;28;20208;-81
2024/01/22 10:01:43;;;;;;;1.60;1.00;;;8.70;99.90;;;;;;5049426;28;20203;-80
2024/01/22 10:04:12;;;;;;;1.17;0.90;;;8.90;99.90;;;;;;5050611;28;20302;-79
2024/01/22 10:06:42;;;;;;;1.70;0.70;;;9.00;1.00;;;;;;5040598;28;20226;-81
2024/01/22 10:09:09;;;;;;;1.83;0.90;;;9.10;99.90;;;;;;5036937;28;20266;-82
2024/01/22 10:11:36;;;;;;;1.03;0.87;;;9.20;1.00;;;;;;5037381;28;20207;-80
2024/01/22 10:14:03;;;;;;;2.00;1.03;;;9.20;1.00;;;;;;5036960;28;20202;-82
2024/01/22 10:16:30;;;;;;;1.67;0.60;;;9.30;1.00;;;;;;5036904;28;20234;-80
2024/01/22 10:18:58;;;;;;;0.80;0.80;;;9.30;99.90;;;;;;5035919;28;20613;-81
2024/01/22 10:21:25;;;;;;;0.80;0.70;;;9.40;48.80;;;;;;5038724;28;20658;-81
2024/01/22 10:24:01;;;;;;;1.47;1.10;;;9.40;1.00;;;;;;5038690;28;20595;-79
2024/01/22 10:26:30;;;;;;;0.77;0.77;;;9.50;1.00;;;;;;5038647;28;20257;-79
2024/01/22 10:29:13;;;;;;;3.60;1.00;;;9.50;1.00;;;;;;5041052;28;20203;-79
2024/01/22 10:31:54;;;;;;;1.33;1.10;;;9.50;1.00;;;;;;5041694;28;20664;-81
2024/01/22 10:34:20;;;;;;;0.80;0.80;;;9.50;1.00;;;;;;5034138;28;20250;-81
2024/01/22 10:37:05;;;;;;;0.73;0.73;;;9.50;1.00;;;;;;5038391;28;20202;-80
2024/01/22 10:39:33;;;;;;;2.23;0.70;;;9.50;1.00;;;;;;5035534;28;20208;-81
2024/01/22 10:42:11;;;;;;;2.27;1.07;;;9.60;99.90;;;;;;5034982;28;20206;-82
2024/01/22 10:44:39;;;;;;;2.87;1.30;;;9.70;99.90;;;;;;5035123;28;20451;-80
2024/01/22 10:47:06;;;;;;;1.63;1.00;;;9.60;99.90;;;;;;5035336;28;20199;-79
2024/01/22 10:49:34;;;;;;;2.90;1.20;;;9.70;99.90;;;;;;5034632;28;20202;-78
2024/01/22 10:52:02;;;;;;;1.63;1.00;;;9.70;99.90;;;;;;5036440;28;20256;-81
2024/01/22 10:54:29;;;;;;;1.50;1.20;;;9.70;99.90;;;;;;5035570;28;20206;-79
2024/01/22 10:57:04;;;;;;;1.47;0.90;;;9.70;18.50;;;;;;5035383;28;20582;-80
2024/01/22 10:59:34;;;;;;;1.47;1.00;;;9.80;99.90;;;;;;5036262;28;20253;-80
2024/01/22 11:02:03;;;;;;;1.97;1.30;;;9.70;12.20;;;;;;5042896;28;20560;-82
2024/01/22 11:04:35;;;;;;;2.83;1.07;;;9.70;99.90;;;;;;5050567;28;20603;-81
2024/01/22 11:07:02;;;;;;;2.63;1.83;;;9.60;99.90;;;;;;5042105;28;20207;-79
2024/01/22 11:09:32;;;;;;;0.93;0.90;;;9.80;61.60;;;;;;5034986;28;20199;-80
2024/01/22 11:12:04;;;;;;;3.80;1.20;;;9.70;99.90;;;;;;5035486;28;20196;-78
2024/01/22 11:14:31;;;;;;;2.30;1.23;;;9.70;93.80;;;;;;5030934;28;20278;-80
2024/01/22 11:16:58;;;;;;;1.57;1.40;;;9.70;54.90;;;;;;5034574;28;20606;-80
2024/01/22 11:19:26;;;;;;;3.33;1.20;;;9.70;99.90;;;;;;5035205;28;20690;-80
2024/01/22 11:21:54;;;;;;;2.73;1.57;;;9.60;99.90;;;;;;5040074;28;20697;-80
2024/01/22 11:24:22;;;;;;;4.93;2.00;;;9.60;1.00;;;;;;5035183;28;20216;-81
2024/01/22 11:27:05;;;;;;;2.43;1.20;;;9.50;1.00;;;;;;5034881;28;20732;-81
2024/01/22 11:29:33;;;;;;;1.80;1.03;;;9.50;94.90;;;;;;5035659;28;20590;-80
2024/01/22 11:32:26;;;;;;;1.20;0.93;;;9.50;1.00;;;;;;5034519;28;20231;-79
2024/01/22 11:34:54;;;;;;;2.23;1.23;;;9.60;1.00;;;;;;5032660;28;20593;-80
2024/01/22 11:37:36;;;;;;;1.47;1.07;;;9.60;1.00;;;;;;5033681;28;20573;-80
2024/01/22 11:40:06;;;;;;;4.13;1.10;;;9.70;99.90;;;;;;5030911;28;20203;-79
2024/01/22 11:42:34;;;;;;;1.63;1.30;;;9.70;95.90;;;;;;5035912;28;20211;-80
2024/01/22 11:45:12;;;;;;;2.13;0.90;;;9.80;1.00;;;;;;5032954;28;20233;-80
2024/01/22 11:47:39;;;;;;;2.53;2.13;;;9.80;1.00;;;;;;5034817;28;20210;-80
2024/01/22 11:50:08;;;;;;;2.73;1.37;;;9.80;1.00;;;;;;5034810;28;20207;-80
2024/01/22 11:52:37;;;;;;;3.77;1.30;;;9.80;1.00;;;;;;5034332;28;20206;-80
2024/01/22 11:55:05;;;;;;;2.97;1.20;;;9.90;1.00;;;;;;5034077;28;20222;-81
2024/01/22 11:57:36;;;;;;;3.10;1.40;;;10.00;1.00;;;;;;5034635;28;20204;-79
2024/01/22 12:00:06;;;;;;;2.20;1.00;;;10.00;1.00;;;;;;5035012;28;20199;-80
2024/01/22 12:02:33;;;;;;;2.90;1.40;;;10.10;1.00;;;;;;5039591;28;20283;-79
2024/01/22 12:05:02;;;;;;;3.47;1.43;;;10.20;99.90;;;;;;5047982;28;20229;-80
2024/01/22 12:07:33;;;;;;;2.00;1.00;;;10.20;99.90;;;;;;5035024;28;20207;-81
2024/01/22 12:10:00;;;;;;;5.60;1.73;;;10.30;99.90;;;;;;5040314;28;20670;-81
2024/01/22 12:12:27;;;;;;;1.73;1.00;;;10.20;99.90;;;;;;5047572;28;20260;-80
2024/01/22 12:14:59;;;;;;;2.40;1.10;;;10.20;99.90;;;;;;5041383;28;20221;-81
2024/01/22 12:17:26;;;;;;;1.70;0.63;;;10.20;99.90;;;;;;5034221;28;20229;-81
2024/01/22 12:19:57;;;;;;;2.47;0.90;;;10.20;99.90;;;;;;5034128;28;20200;-80
2024/01/22 12:22:24;;;;;;;2.63;1.20;;;10.10;1.00;;;;;;5039180;28;20204;-80
2024/01/22 12:25:10;;;;;;;2.10;1.10;;;10.00;1.00;;;;;;5038411;28;20223;-81
2024/01/22 12:27:38;;;;;;;4.60;1.63;;;9.90;1.00;;;;;;5038996;28;20658;-79
2024/01/22 12:30:12;;;;;;;6.43;1.57;;;9.80;99.90;;;;;;5033561;28;20370;-82
2024/01/22 12:32:39;;;;;;;2.73;1.80;;;9.70;1.00;;;;;;5034306;28;20763;-80
2024/01/22 12:35:07;;;;;;;2.83;1.50;;;9.70;1.00;;;;;;5034451;28;20220;-81
2024/01/22 12:37:35;;;;;;;2.00;1.17;;;9.70;1.00;;;;;;5034458;28;20200;-81
2024/01/22 12:40:20;;;;;;;4.30;1.70;;;9.80;1.00;;;;;;5034732;28;20200;-82
2024/01/22 12:42:48;;;;;;;5.87;1.63;;;9.70;99.90;;;;;;5034446;28;20222;-80
2024/01/22 12:45:19;;;;;;;2.13;1.43;;;9.80;99.90;;;;;;5036917;28;20237;-81
2024/01/22 12:47:47;;;;;;;4.27;1.63;;;9.70;1.00;;;;;;5034465;28;20208;-81
2024/01/22 12:50:17;;;;;;;3.73;1.40;;;9.70;99.90;;;;;;5034817;28;20250;-80
2024/01/22 12:52:45;;;;;;;7.30;1.77;;;9.60;1.00;;;;;;5033596;28;20203;-81
2024/01/22 12:55:14;;;;;;;4.53;1.33;;;9.60;1.00;;;;;;5034185;28;20219;-81
2024/01/22 12:57:42;;;;;;;4.30;1.60;;;9.60;99.90;;;;;;5033862;28;20222;-79
2024/01/22 13:00:09;;;;;;;5.33;1.67;;;9.60;1.00;;;;;;5033980;28;20209;-79
2024/01/22 13:02:38;;;;;;;3.77;1.47;;;9.50;1.00;;;;;;5035030;28;20669;-80
2024/01/22 13:05:06;;;;;;;5.87;1.67;;;9.60;99.90;;;;;;5033887;28;20834;-81